createdAt,value
2019-05-01T00:00:33.626Z,98.90
2019-05-01T00:02:05.894Z,99.40
2019-05-01T00:03:34.368Z,99.60
2019-05-01T00:04:58.442Z,99.70
2019-05-01T00:06:05.650Z,99.40
2019-05-01T00:07:20.895Z,99.50
2019-05-01T00:08:26.889Z,99.50
2019-05-01T00:09:33.545Z,99.30
2019-05-01T00:10:40.057Z,99.10
2019-05-01T00:11:46.528Z,99.10
2019-05-01T00:12:52.914Z,99.00
2019-05-01T00:13:59.058Z,98.90
2019-05-01T00:15:06.333Z,98.80
2019-05-01T00:16:12.925Z,98.70
2019-05-01T00:17:21.137Z,98.50
2019-05-01T00:18:27.359Z,98.40
2019-05-01T00:19:33.851Z,98.50
2019-05-01T00:20:39.985Z,98.60
2019-05-01T00:21:46.410Z,98.70
2019-05-01T00:22:52.813Z,98.80
2019-05-01T00:23:59.113Z,98.80
2019-05-01T00:25:05.630Z,98.80
2019-05-01T00:26:11.586Z,98.70
2019-05-01T00:27:17.940Z,98.60
2019-05-01T00:28:24.284Z,98.70
2019-05-01T00:29:30.658Z,98.30
2019-05-01T00:30:37.257Z,98.80
2019-05-01T00:31:43.606Z,98.70
2019-05-01T00:32:49.956Z,98.70
2019-05-01T00:33:56.117Z,98.60
2019-05-01T00:35:02.459Z,98.50
2019-05-01T00:36:08.907Z,98.40
2019-05-01T00:37:15.136Z,98.70
2019-05-01T00:38:21.316Z,99.30
2019-05-01T00:39:27.738Z,98.90
2019-05-01T00:40:34.298Z,98.80
2019-05-01T00:41:40.566Z,98.70
2019-05-01T00:42:46.918Z,98.60
2019-05-01T00:43:53.326Z,98.70
2019-05-01T00:44:59.745Z,98.90
2019-05-01T00:46:05.926Z,98.90
2019-05-01T00:47:11.848Z,98.90
2019-05-01T00:48:18.200Z,99.10
2019-05-01T00:49:24.468Z,99.10
2019-05-01T00:50:30.948Z,99.30
2019-05-01T00:51:37.298Z,99.30
2019-05-01T00:52:43.655Z,99.30
2019-05-01T00:53:50.014Z,99.60
2019-05-01T00:55:15.562Z,99.50
2019-05-01T00:56:41.678Z,99.40
2019-05-01T00:57:55.309Z,99.70
2019-05-01T00:59:18.469Z,99.90
2019-05-01T01:00:43.103Z,99.90
2019-05-01T01:02:09.262Z,99.90
2019-05-01T01:03:15.478Z,99.90
2019-05-01T01:04:21.426Z,99.90
2019-05-01T01:05:27.872Z,99.90
2019-05-01T01:06:34.286Z,99.90
2019-05-01T01:07:40.706Z,99.90
2019-05-01T01:08:46.967Z,99.90
2019-05-01T01:09:53.185Z,99.90
2019-05-01T01:10:59.425Z,99.90
2019-05-01T01:12:05.724Z,99.90
2019-05-01T01:13:11.967Z,99.90
2019-05-01T01:14:18.126Z,99.90
2019-05-01T01:15:24.504Z,99.90
2019-05-01T01:16:30.904Z,99.90
2019-05-01T01:17:37.342Z,99.90
2019-05-01T01:18:43.664Z,99.90
2019-05-01T01:19:50.150Z,99.90
2019-05-01T01:20:56.675Z,99.90
2019-05-01T01:22:02.937Z,99.90
2019-05-01T01:23:09.466Z,99.90
2019-05-01T01:24:15.863Z,99.90
2019-05-01T01:25:22.259Z,99.90
2019-05-01T01:26:28.599Z,99.90
2019-05-01T01:27:35.098Z,99.90
2019-05-01T01:28:41.531Z,99.90
2019-05-01T01:29:47.710Z,99.90
2019-05-01T01:30:56.533Z,99.90
2019-05-01T01:32:04.494Z,99.90
2019-05-01T01:33:10.717Z,99.90
2019-05-01T01:34:17.269Z,99.90
2019-05-01T01:35:23.669Z,99.90
2019-05-01T01:36:30.019Z,99.90
2019-05-01T01:37:36.536Z,99.90
2019-05-01T01:38:42.852Z,99.90
2019-05-01T01:39:49.355Z,99.90
2019-05-01T01:40:55.758Z,99.90
2019-05-01T01:42:02.017Z,99.90
2019-05-01T01:43:26.232Z,99.90
2019-05-01T01:45:00.688Z,99.90
2019-05-01T01:46:08.178Z,99.90
2019-05-01T01:47:14.714Z,99.90
2019-05-01T01:48:21.193Z,99.90
2019-05-01T01:49:27.698Z,99.90
2019-05-01T01:50:34.485Z,99.90
2019-05-01T01:51:41.084Z,99.90
2019-05-01T01:52:47.409Z,99.90
2019-05-01T01:53:54.533Z,99.90
2019-05-01T01:55:01.145Z,99.90
2019-05-01T01:56:07.685Z,99.90
2019-05-01T01:57:14.128Z,99.90
2019-05-01T01:58:22.256Z,99.90
2019-05-01T01:59:30.010Z,99.90
2019-05-01T02:01:09.529Z,99.90
2019-05-01T02:02:30.355Z,99.90
2019-05-01T02:03:39.935Z,99.90
2019-05-01T02:05:11.735Z,99.90
2019-05-01T02:06:18.366Z,99.90
2019-05-01T02:07:24.465Z,99.90
2019-05-01T02:08:30.992Z,99.90
2019-05-01T02:09:37.446Z,99.90
2019-05-01T02:10:44.208Z,99.90
2019-05-01T02:11:51.848Z,99.90
2019-05-01T02:12:58.194Z,99.90
2019-05-01T02:14:04.766Z,99.90
2019-05-01T02:15:11.745Z,99.90
2019-05-01T02:16:18.039Z,99.90
2019-05-01T02:17:24.438Z,99.90
2019-05-01T02:18:30.838Z,99.90
2019-05-01T02:19:37.121Z,99.90
2019-05-01T02:20:43.181Z,99.90
2019-05-01T02:21:49.562Z,99.90
2019-05-01T02:22:55.996Z,99.90
2019-05-01T02:24:03.404Z,99.90
2019-05-01T02:25:11.257Z,99.90
2019-05-01T02:26:20.372Z,99.90
2019-05-01T02:27:39.886Z,99.90
2019-05-01T02:28:52.741Z,99.90
2019-05-01T02:30:00.801Z,99.90
2019-05-01T02:31:29.811Z,99.90
2019-05-01T02:32:37.127Z,99.90
2019-05-01T02:33:46.456Z,99.90
2019-05-01T02:34:55.133Z,99.90
2019-05-01T02:36:01.529Z,99.90
2019-05-01T02:37:09.899Z,99.90
2019-05-01T02:38:17.370Z,99.90
2019-05-01T02:39:24.596Z,99.90
2019-05-01T02:41:06.751Z,99.90
2019-05-01T02:42:15.197Z,99.90
2019-05-01T02:43:24.441Z,99.90
2019-05-01T02:44:37.525Z,99.90
2019-05-01T02:45:46.032Z,99.90
2019-05-01T02:46:54.726Z,99.90
2019-05-01T02:48:02.574Z,99.90
2019-05-01T02:49:12.678Z,99.90
2019-05-01T02:50:20.942Z,99.90
2019-05-01T02:51:29.119Z,99.90
2019-05-01T02:52:37.683Z,99.90
2019-05-01T02:53:46.238Z,99.90
2019-05-01T02:54:53.546Z,99.90
2019-05-01T02:56:22.578Z,99.90
2019-05-01T02:57:30.082Z,99.90
2019-05-01T02:58:36.852Z,99.90
2019-05-01T02:59:46.853Z,99.90
2019-05-01T03:00:52.995Z,99.90
2019-05-01T03:02:00.367Z,99.90
2019-05-01T03:03:07.125Z,99.90
2019-05-01T03:04:13.851Z,99.90
2019-05-01T03:05:20.204Z,99.90
2019-05-01T03:06:27.925Z,99.90
2019-05-01T03:07:37.463Z,99.90
2019-05-01T03:08:44.585Z,99.90
2019-05-01T03:09:51.541Z,99.90
2019-05-01T03:10:57.898Z,99.90
2019-05-01T03:12:04.851Z,99.90
2019-05-01T03:13:11.205Z,99.90
2019-05-01T03:14:20.554Z,99.90
2019-05-01T03:15:29.395Z,99.90
2019-05-01T03:16:37.990Z,99.90
2019-05-01T03:18:10.478Z,99.90
2019-05-01T03:19:41.539Z,99.90
2019-05-01T03:21:02.841Z,99.90
2019-05-01T03:22:18.099Z,99.90
2019-05-01T03:23:28.742Z,99.90
2019-05-01T03:24:35.438Z,99.90
2019-05-01T03:25:41.495Z,99.90
2019-05-01T03:26:47.963Z,99.90
2019-05-01T03:27:54.399Z,99.90
2019-05-01T03:29:00.723Z,99.90
2019-05-01T03:30:07.388Z,99.90
2019-05-01T03:31:13.661Z,99.90
2019-05-01T03:32:20.309Z,99.90
2019-05-01T03:33:26.497Z,99.90
2019-05-01T03:34:33.120Z,99.90
2019-05-01T03:35:39.874Z,99.90
2019-05-01T03:36:46.638Z,99.90
2019-05-01T03:37:52.869Z,99.90
2019-05-01T03:38:59.585Z,99.90
2019-05-01T03:40:11.932Z,99.90
2019-05-01T03:41:16.459Z,99.90
2019-05-01T03:42:23.305Z,99.90
2019-05-01T03:43:30.006Z,99.90
2019-05-01T03:44:36.486Z,99.90
2019-05-01T03:45:43.748Z,99.90
2019-05-01T03:46:50.527Z,99.90
2019-05-01T03:47:57.295Z,99.90
2019-05-01T03:49:03.823Z,99.90
2019-05-01T03:50:10.237Z,99.90
2019-05-01T03:51:16.840Z,99.90
2019-05-01T03:52:23.322Z,99.90
2019-05-01T03:53:30.256Z,99.90
2019-05-01T03:54:36.719Z,99.90
2019-05-01T03:55:43.167Z,99.90
2019-05-01T03:56:49.613Z,99.90
2019-05-01T03:57:56.155Z,99.90
2019-05-01T03:59:02.493Z,99.90
2019-05-01T04:00:11.129Z,99.90
2019-05-01T04:01:39.953Z,99.90
2019-05-01T04:03:06.474Z,99.90
2019-05-01T04:04:16.888Z,99.90
2019-05-01T04:05:22.814Z,99.90
2019-05-01T04:06:29.165Z,99.90
2019-05-01T04:07:36.341Z,99.90
2019-05-01T04:08:43.169Z,99.90
2019-05-01T04:09:49.523Z,99.90
2019-05-01T04:10:56.494Z,99.90
2019-05-01T04:12:03.396Z,99.90
2019-05-01T04:13:10.002Z,99.90
2019-05-01T04:14:16.717Z,99.90
2019-05-01T04:15:23.404Z,99.90
2019-05-01T04:16:29.934Z,99.90
2019-05-01T04:17:45.643Z,99.90
2019-05-01T04:18:52.597Z,99.90
2019-05-01T04:19:59.533Z,99.90
2019-05-01T04:21:07.624Z,99.90
2019-05-01T04:22:15.279Z,99.90
2019-05-01T04:23:22.094Z,99.90
2019-05-01T04:24:28.892Z,99.90
2019-05-01T04:25:36.138Z,99.90
2019-05-01T04:26:43.030Z,99.90
2019-05-01T04:27:51.185Z,99.90
2019-05-01T04:29:25.595Z,99.90
2019-05-01T04:30:51.515Z,99.90
2019-05-01T04:32:08.113Z,99.90
2019-05-01T04:33:15.368Z,99.90
2019-05-01T04:34:34.170Z,99.90
2019-05-01T04:35:57.374Z,99.90
2019-05-01T04:37:05.747Z,99.90
2019-05-01T04:38:12.363Z,99.90
2019-05-01T04:39:19.082Z,99.90
2019-05-01T04:40:26.003Z,99.90
2019-05-01T04:41:32.357Z,99.90
2019-05-01T04:42:38.994Z,99.90
2019-05-01T04:43:45.415Z,99.90
2019-05-01T04:44:51.928Z,99.90
2019-05-01T04:45:58.716Z,99.90
2019-05-01T04:47:05.372Z,99.90
2019-05-01T04:48:11.737Z,99.90
2019-05-01T04:49:18.323Z,99.90
2019-05-01T04:50:24.737Z,99.90
2019-05-01T04:51:31.451Z,99.90
2019-05-01T04:52:37.826Z,99.90
2019-05-01T04:53:44.358Z,99.90
2019-05-01T04:54:50.952Z,99.90
2019-05-01T04:55:57.968Z,99.90
2019-05-01T04:57:04.484Z,99.90
2019-05-01T04:58:10.910Z,99.90
2019-05-01T04:59:17.456Z,99.90
2019-05-01T05:00:23.806Z,99.90
2019-05-01T05:01:49.151Z,99.90
2019-05-01T05:03:05.035Z,99.90
2019-05-01T05:04:11.347Z,99.90
2019-05-01T05:05:17.983Z,99.90
2019-05-01T05:06:24.144Z,99.90
2019-05-01T05:07:30.610Z,99.90
2019-05-01T05:08:36.937Z,99.90
2019-05-01T05:09:47.388Z,99.90
2019-05-01T05:10:55.262Z,99.90
2019-05-01T05:12:03.448Z,99.90
2019-05-01T05:13:15.973Z,99.90
2019-05-01T05:14:25.879Z,99.90
2019-05-01T05:16:06.354Z,99.90
2019-05-01T05:17:17.033Z,99.90
2019-05-01T05:18:23.948Z,99.90
2019-05-01T05:19:30.093Z,99.90
2019-05-01T05:20:36.177Z,99.90
2019-05-01T05:21:43.086Z,99.90
2019-05-01T05:22:49.836Z,99.90
2019-05-01T05:23:56.368Z,99.60
2019-05-01T05:25:03.026Z,99.50
2019-05-01T05:26:09.927Z,99.40
2019-05-01T05:27:18.624Z,99.30
2019-05-01T05:28:25.925Z,99.50
2019-05-01T05:29:33.410Z,99.50
2019-05-01T05:30:42.184Z,98.80
2019-05-01T05:31:49.124Z,98.80
2019-05-01T05:32:57.166Z,98.60
2019-05-01T05:34:05.098Z,98.80
2019-05-01T05:35:13.756Z,98.60
2019-05-01T05:36:23.044Z,98.40
2019-05-01T05:37:36.668Z,98.50
2019-05-01T05:38:56.878Z,98.10
2019-05-01T05:40:04.358Z,98.40
2019-05-01T05:41:11.386Z,97.70
2019-05-01T05:42:17.927Z,97.80
2019-05-01T05:43:24.698Z,97.90
2019-05-01T05:44:31.489Z,98.20
2019-05-01T05:45:38.026Z,97.70
2019-05-01T05:46:44.700Z,97.60
2019-05-01T05:47:51.148Z,97.70
2019-05-01T05:48:57.584Z,97.60
2019-05-01T05:50:03.808Z,97.70
2019-05-01T05:51:34.419Z,98.10
2019-05-01T05:52:50.626Z,97.60
2019-05-01T05:54:01.392Z,97.60
2019-05-01T05:55:32.523Z,97.70
2019-05-01T05:56:46.762Z,97.70
2019-05-01T05:58:06.137Z,97.30
2019-05-01T05:59:17.548Z,97.20
2019-05-01T06:01:00.092Z,97.30
2019-05-01T06:02:29.177Z,97.60
2019-05-01T06:04:05.962Z,96.80
2019-05-01T06:05:23.984Z,96.50
2019-05-01T06:06:57.070Z,96.20
2019-05-01T06:08:13.874Z,96.20
2019-05-01T06:09:26.063Z,96.30
2019-05-01T06:10:53.497Z,96.50
2019-05-01T06:12:20.544Z,96.10
2019-05-01T06:13:44.528Z,96.00
2019-05-01T06:15:12.789Z,95.60
2019-05-01T06:16:29.877Z,95.20
2019-05-01T06:17:59.155Z,95.40
2019-05-01T06:19:25.003Z,95.10
2019-05-01T06:20:37.632Z,94.90
2019-05-01T06:22:04.986Z,95.00
2019-05-01T06:23:30.767Z,94.70
2019-05-01T06:24:40.562Z,94.50
2019-05-01T06:25:54.132Z,94.30
2019-05-01T06:26:58.813Z,94.50
2019-05-01T06:28:05.447Z,94.60
2019-05-01T06:29:11.661Z,94.80
2019-05-01T06:30:18.158Z,94.60
2019-05-01T06:31:24.735Z,94.70
2019-05-01T06:32:33.416Z,94.90
2019-05-01T06:33:44.355Z,95.00
2019-05-01T06:34:47.209Z,95.00
2019-05-01T06:35:53.743Z,94.70
2019-05-01T06:37:00.152Z,95.00
2019-05-01T06:38:11.615Z,95.00
2019-05-01T06:39:18.081Z,94.80
2019-05-01T06:40:38.871Z,95.10
2019-05-01T06:41:45.566Z,94.60
2019-05-01T06:42:52.089Z,94.80
2019-05-01T06:44:20.364Z,94.50
2019-05-01T06:45:28.562Z,94.10
2019-05-01T06:47:05.145Z,94.10
2019-05-01T06:48:14.195Z,94.30
2019-05-01T06:49:30.932Z,94.30
2019-05-01T06:50:53.258Z,94.70
2019-05-01T06:52:00.492Z,94.40
2019-05-01T06:53:06.760Z,94.30
2019-05-01T06:54:16.360Z,94.50
2019-05-01T06:55:22.443Z,94.20
2019-05-01T06:56:30.323Z,93.80
2019-05-01T06:57:38.421Z,94.00
2019-05-01T06:58:45.481Z,94.10
2019-05-01T06:59:51.934Z,94.20
2019-05-01T07:00:58.333Z,94.00
2019-05-01T07:02:05.140Z,93.90
2019-05-01T07:03:12.149Z,93.80
2019-05-01T07:04:18.299Z,93.10
2019-05-01T07:05:25.101Z,93.50
2019-05-01T07:06:32.894Z,93.70
2019-05-01T07:07:39.630Z,92.90
2019-05-01T07:08:46.987Z,92.40
2019-05-01T07:09:55.982Z,92.70
2019-05-01T07:11:02.460Z,92.80
2019-05-01T07:12:14.199Z,93.10
2019-05-01T07:13:20.897Z,92.90
2019-05-01T07:14:27.776Z,93.10
2019-05-01T07:15:34.228Z,93.10
2019-05-01T07:16:40.813Z,92.70
2019-05-01T07:17:47.879Z,92.90
2019-05-01T07:18:58.069Z,92.90
2019-05-01T07:20:27.768Z,92.80
2019-05-01T07:21:33.886Z,92.90
2019-05-01T07:22:42.344Z,91.20
2019-05-01T07:23:52.199Z,90.90
2019-05-01T07:24:59.010Z,91.30
2019-05-01T07:26:05.348Z,91.30
2019-05-01T07:27:11.840Z,91.50
2019-05-01T07:28:18.393Z,91.00
2019-05-01T07:29:26.443Z,91.40
2019-05-01T07:30:54.927Z,91.00
2019-05-01T07:32:01.689Z,90.90
2019-05-01T07:33:12.060Z,90.80
2019-05-01T07:34:16.877Z,91.20
2019-05-01T07:35:23.661Z,91.10
2019-05-01T07:36:30.287Z,91.80
2019-05-01T07:37:36.752Z,90.80
2019-05-01T07:38:43.922Z,90.70
2019-05-01T07:39:51.775Z,92.00
2019-05-01T07:41:03.225Z,91.40
2019-05-01T07:42:25.052Z,91.10
2019-05-01T07:43:59.785Z,91.50
2019-05-01T07:45:27.739Z,90.70
2019-05-01T07:47:11.768Z,91.00
2019-05-01T07:48:21.194Z,90.90
2019-05-01T07:49:52.717Z,91.20
2019-05-01T07:51:01.861Z,90.70
2019-05-01T07:52:07.196Z,91.40
2019-05-01T07:53:13.708Z,90.00
2019-05-01T07:54:20.947Z,89.30
2019-05-01T07:55:38.552Z,89.40
2019-05-01T07:56:45.055Z,88.90
2019-05-01T07:57:54.998Z,89.70
2019-05-01T07:59:01.388Z,89.50
2019-05-01T08:00:11.542Z,88.00
2019-05-01T08:01:35.832Z,89.60
2019-05-01T08:02:43.689Z,88.20
2019-05-01T08:03:50.057Z,90.20
2019-05-01T08:04:56.484Z,89.60
2019-05-01T08:06:02.914Z,89.30
2019-05-01T08:07:09.337Z,89.90
2019-05-01T08:08:15.689Z,89.40
2019-05-01T08:09:21.634Z,87.70
2019-05-01T08:10:31.478Z,87.10
2019-05-01T08:11:39.122Z,88.50
2019-05-01T08:12:45.255Z,86.90
2019-05-01T08:13:51.622Z,88.60
2019-05-01T08:14:57.879Z,89.70
2019-05-01T08:16:07.253Z,86.10
2019-05-01T08:17:18.094Z,87.30
2019-05-01T08:18:29.304Z,86.30
2019-05-01T08:20:00.524Z,85.90
2019-05-01T08:21:26.012Z,84.50
2019-05-01T08:22:37.334Z,86.30
2019-05-01T08:23:47.136Z,85.60
2019-05-01T08:24:53.928Z,82.40
2019-05-01T08:26:03.982Z,80.90
2019-05-01T08:27:20.256Z,80.90
2019-05-01T08:28:31.984Z,81.80
2019-05-01T08:30:06.955Z,83.70
2019-05-01T08:31:33.461Z,83.20
2019-05-01T08:32:50.882Z,82.30
2019-05-01T08:34:06.237Z,81.40
2019-05-01T08:35:14.230Z,82.40
2019-05-01T08:36:20.549Z,82.60
2019-05-01T08:37:27.173Z,82.50
2019-05-01T08:38:34.321Z,82.30
2019-05-01T08:39:44.268Z,79.40
2019-05-01T08:40:50.691Z,77.80
2019-05-01T08:41:58.081Z,78.30
2019-05-01T08:43:04.525Z,78.20
2019-05-01T08:44:10.984Z,78.00
2019-05-01T08:45:42.882Z,77.60
2019-05-01T08:46:57.324Z,77.50
2019-05-01T08:48:22.818Z,78.50
2019-05-01T08:49:54.684Z,79.40
2019-05-01T08:51:01.089Z,78.20
2019-05-01T08:52:12.519Z,78.30
2019-05-01T08:53:18.016Z,79.00
2019-05-01T08:54:23.215Z,77.80
2019-05-01T08:55:29.587Z,76.30
2019-05-01T08:56:36.151Z,74.40
2019-05-01T08:57:42.453Z,75.30
2019-05-01T08:58:49.405Z,74.90
2019-05-01T09:00:00.409Z,75.10
2019-05-01T09:01:05.907Z,74.00
2019-05-01T09:02:12.180Z,74.10
2019-05-01T09:03:18.954Z,73.00
2019-05-01T09:04:30.309Z,75.00
2019-05-01T09:05:34.201Z,73.70
2019-05-01T09:06:43.861Z,71.40
2019-05-01T09:07:51.230Z,70.50
2019-05-01T09:08:56.435Z,71.50
2019-05-01T09:10:02.896Z,71.50
2019-05-01T09:11:09.431Z,69.30
2019-05-01T09:12:15.680Z,67.60
2019-05-01T09:13:23.841Z,70.00
2019-05-01T09:14:34.482Z,70.80
2019-05-01T09:15:37.736Z,69.50
2019-05-01T09:16:43.953Z,66.90
2019-05-01T09:17:50.468Z,66.10
2019-05-01T09:18:56.893Z,66.70
2019-05-01T09:20:03.971Z,67.30
2019-05-01T09:21:10.249Z,67.10
2019-05-01T09:22:16.788Z,65.00
2019-05-01T09:23:23.017Z,62.00
2019-05-01T09:24:29.541Z,62.50
2019-05-01T09:25:42.421Z,63.80
2019-05-01T09:27:06.396Z,63.60
2019-05-01T09:28:21.975Z,62.70
2019-05-01T09:29:34.965Z,65.40
2019-05-01T09:30:46.575Z,63.40
2019-05-01T09:31:52.935Z,63.40
2019-05-01T09:32:59.330Z,64.60
2019-05-01T09:34:09.470Z,62.70
2019-05-01T09:35:19.483Z,64.00
2019-05-01T09:36:24.628Z,61.00
2019-05-01T09:37:30.797Z,62.30
2019-05-01T09:38:37.112Z,59.00
2019-05-01T09:39:43.584Z,58.80
2019-05-01T09:40:49.808Z,59.70
2019-05-01T09:41:56.098Z,58.30
2019-05-01T09:43:02.306Z,58.20
2019-05-01T09:44:10.763Z,58.60
2019-05-01T09:45:17.807Z,59.00
2019-05-01T09:46:24.394Z,58.20
2019-05-01T09:47:30.571Z,57.20
2019-05-01T09:48:37.041Z,56.30
2019-05-01T09:49:43.466Z,55.90
2019-05-01T09:51:00.911Z,57.00
2019-05-01T09:52:18.955Z,58.40
2019-05-01T09:53:41.218Z,56.70
2019-05-01T09:54:53.316Z,56.00
2019-05-01T09:56:10.098Z,55.00
2019-05-01T09:57:16.483Z,55.80
2019-05-01T09:58:23.092Z,56.30
2019-05-01T09:59:29.303Z,56.80
2019-05-01T10:00:35.540Z,58.00
2019-05-01T10:01:42.151Z,57.10
2019-05-01T10:02:48.524Z,56.40
2019-05-01T10:03:56.409Z,56.40
2019-05-01T10:05:06.755Z,55.50
2019-05-01T10:06:12.876Z,57.50
2019-05-01T10:07:18.454Z,56.40
2019-05-01T10:08:25.126Z,56.30
2019-05-01T10:09:31.305Z,56.40
2019-05-01T10:10:37.577Z,57.50
2019-05-01T10:11:44.145Z,56.10
2019-05-01T10:12:52.652Z,55.20
2019-05-01T10:13:59.698Z,57.00
2019-05-01T10:15:06.084Z,57.10
2019-05-01T10:16:12.365Z,56.00
2019-05-01T10:17:18.692Z,56.00
2019-05-01T10:18:24.964Z,57.40
2019-05-01T10:19:31.273Z,55.40
2019-05-01T10:20:37.656Z,56.20
2019-05-01T10:21:44.918Z,55.00
2019-05-01T10:22:51.276Z,53.30
2019-05-01T10:23:57.585Z,53.80
2019-05-01T10:25:04.184Z,52.80
2019-05-01T10:26:11.858Z,51.90
2019-05-01T10:27:22.571Z,52.60
2019-05-01T10:28:38.350Z,51.70
2019-05-01T10:30:03.118Z,51.80
2019-05-01T10:31:24.025Z,50.40
2019-05-01T10:32:37.956Z,52.10
2019-05-01T10:33:45.937Z,51.10
2019-05-01T10:35:00.296Z,51.70
2019-05-01T10:36:24.473Z,51.40
2019-05-01T10:37:33.705Z,51.50
2019-05-01T10:38:39.997Z,50.90
2019-05-01T10:39:50.132Z,50.60
2019-05-01T10:40:54.605Z,51.60
2019-05-01T10:42:01.085Z,50.70
2019-05-01T10:43:07.277Z,49.90
2019-05-01T10:44:13.774Z,48.50
2019-05-01T10:45:20.207Z,45.60
2019-05-01T10:46:26.535Z,45.00
2019-05-01T10:47:32.850Z,41.30
2019-05-01T10:48:39.265Z,39.10
2019-05-01T10:49:45.479Z,37.80
2019-05-01T10:50:51.837Z,37.20
2019-05-01T10:51:57.839Z,35.30
2019-05-01T10:53:03.897Z,34.40
2019-05-01T10:54:10.464Z,32.70
2019-05-01T10:55:16.711Z,31.50
2019-05-01T10:56:22.950Z,32.20
2019-05-01T10:57:29.389Z,30.00
2019-05-01T10:58:35.865Z,31.30
2019-05-01T10:59:42.188Z,30.20
2019-05-01T11:00:51.184Z,29.80
2019-05-01T11:01:59.067Z,30.20
2019-05-01T11:03:08.269Z,29.10
2019-05-01T11:04:14.521Z,29.10
2019-05-01T11:05:20.778Z,29.70
2019-05-01T11:06:27.115Z,31.30
2019-05-01T11:07:33.545Z,31.00
2019-05-01T11:08:39.842Z,29.60
2019-05-01T11:09:46.378Z,31.00
2019-05-01T11:10:52.737Z,30.10
2019-05-01T11:11:59.321Z,30.00
2019-05-01T11:13:07.729Z,28.50
2019-05-01T11:14:14.790Z,27.90
2019-05-01T11:15:21.266Z,27.50
2019-05-01T11:16:27.457Z,28.10
2019-05-01T11:17:33.955Z,30.00
2019-05-01T11:18:41.406Z,29.50
2019-05-01T11:19:47.690Z,29.50
2019-05-01T11:20:54.116Z,29.40
2019-05-01T11:22:00.539Z,28.60
2019-05-01T11:23:06.916Z,27.70
2019-05-01T11:24:13.298Z,27.20
2019-05-01T11:25:20.720Z,27.70
2019-05-01T11:26:27.237Z,27.30
2019-05-01T11:27:33.556Z,27.40
2019-05-01T11:28:39.847Z,27.10
2019-05-01T11:29:46.236Z,26.30
2019-05-01T11:30:52.707Z,25.90
2019-05-01T11:32:27.417Z,25.70
2019-05-01T11:34:00.460Z,25.20
2019-05-01T11:35:35.723Z,26.30
2019-05-01T11:37:03.905Z,26.30
2019-05-01T11:38:31.543Z,25.80
2019-05-01T11:39:56.743Z,26.30
2019-05-01T11:41:09.037Z,25.00
2019-05-01T11:42:15.703Z,24.70
2019-05-01T11:43:22.360Z,24.00
2019-05-01T11:44:28.717Z,24.50
2019-05-01T11:45:35.114Z,25.00
2019-05-01T11:46:44.713Z,25.30
2019-05-01T11:47:50.906Z,24.70
2019-05-01T11:48:57.311Z,24.20
2019-05-01T11:50:03.719Z,24.90
2019-05-01T11:51:12.908Z,24.50
2019-05-01T11:52:19.334Z,24.50
2019-05-01T11:53:25.569Z,24.10
2019-05-01T11:54:32.172Z,24.10
2019-05-01T11:55:39.570Z,24.10
2019-05-01T11:56:46.071Z,24.80
2019-05-01T11:57:52.416Z,24.90
2019-05-01T11:58:58.641Z,24.40
2019-05-01T12:00:05.327Z,24.40
2019-05-01T12:01:12.542Z,23.30
2019-05-01T12:02:19.010Z,23.90
2019-05-01T12:03:26.619Z,23.10
2019-05-01T12:04:33.120Z,23.50
2019-05-01T12:05:39.453Z,22.70
2019-05-01T12:06:45.997Z,23.20
2019-05-01T12:07:52.456Z,23.50
2019-05-01T12:08:58.867Z,22.90
2019-05-01T12:10:05.098Z,22.80
2019-05-01T12:11:11.927Z,23.40
2019-05-01T12:12:19.516Z,23.30
2019-05-01T12:13:25.497Z,23.60
2019-05-01T12:14:31.882Z,23.00
2019-05-01T12:15:38.282Z,22.70
2019-05-01T12:17:02.634Z,22.20
2019-05-01T12:18:09.082Z,22.20
2019-05-01T12:19:15.380Z,22.20
2019-05-01T12:20:23.777Z,22.10
2019-05-01T12:21:30.184Z,21.60
2019-05-01T12:22:36.201Z,21.90
2019-05-01T12:23:42.616Z,22.20
2019-05-01T12:24:49.118Z,22.90
2019-05-01T12:25:55.367Z,23.00
2019-05-01T12:27:01.667Z,23.10
2019-05-01T12:28:08.004Z,22.70
2019-05-01T12:29:14.470Z,22.90
2019-05-01T12:30:21.290Z,23.30
2019-05-01T12:31:27.719Z,23.70
2019-05-01T12:32:34.265Z,23.70
2019-05-01T12:33:40.497Z,24.00
2019-05-01T12:34:46.880Z,23.90
2019-05-01T12:35:55.173Z,23.00
2019-05-01T12:37:21.097Z,22.20
2019-05-01T12:38:27.646Z,22.10
2019-05-01T12:39:34.152Z,21.60
2019-05-01T12:40:40.583Z,21.40
2019-05-01T12:41:55.120Z,21.60
2019-05-01T12:43:02.708Z,21.90
2019-05-01T12:44:09.145Z,22.10
2019-05-01T12:45:17.024Z,22.20
2019-05-01T12:46:41.827Z,22.50
2019-05-01T12:47:52.623Z,22.30
2019-05-01T12:49:01.950Z,22.30
2019-05-01T12:50:11.791Z,23.00
2019-05-01T12:51:20.807Z,21.60
2019-05-01T12:52:42.392Z,21.40
2019-05-01T12:54:13.877Z,21.90
2019-05-01T12:55:30.615Z,21.80
2019-05-01T12:56:43.801Z,21.00
2019-05-01T12:57:50.170Z,21.60
2019-05-01T12:58:56.776Z,21.80
2019-05-01T13:00:08.765Z,22.50
2019-05-01T13:01:11.972Z,22.70
2019-05-01T13:02:19.434Z,23.40
2019-05-01T13:03:26.264Z,23.80
2019-05-01T13:04:33.388Z,25.50
2019-05-01T13:05:40.642Z,24.30
2019-05-01T13:06:50.456Z,24.10
2019-05-01T13:07:58.996Z,23.20
2019-05-01T13:09:07.774Z,22.20
2019-05-01T13:10:14.915Z,22.00
2019-05-01T13:11:21.191Z,22.90
2019-05-01T13:12:27.553Z,24.00
2019-05-01T13:13:36.728Z,24.10
2019-05-01T13:14:47.396Z,24.90
2019-05-01T13:15:57.170Z,25.70
2019-05-01T13:17:06.783Z,25.10
2019-05-01T13:18:13.784Z,25.30
2019-05-01T13:19:22.743Z,25.30
2019-05-01T13:20:31.086Z,25.70
2019-05-01T13:21:38.762Z,26.50
2019-05-01T13:22:46.359Z,26.30
2019-05-01T13:23:52.587Z,26.30
2019-05-01T13:24:58.968Z,26.40
2019-05-01T13:26:24.600Z,26.10
2019-05-01T13:27:38.109Z,26.40
2019-05-01T13:28:56.164Z,27.30
2019-05-01T13:30:36.771Z,27.50
2019-05-01T13:32:11.221Z,27.50
2019-05-01T13:33:17.887Z,27.80
2019-05-01T13:34:24.126Z,28.20
2019-05-01T13:35:31.724Z,28.80
2019-05-01T13:36:38.499Z,28.70
2019-05-01T13:37:44.745Z,28.50
2019-05-01T13:38:50.997Z,28.10
2019-05-01T13:39:58.362Z,28.00
2019-05-01T13:41:04.960Z,28.00
2019-05-01T13:42:11.264Z,28.30
2019-05-01T13:43:17.590Z,28.00
2019-05-01T13:44:23.929Z,28.40
2019-05-01T13:45:30.239Z,29.10
2019-05-01T13:46:36.669Z,29.80
2019-05-01T13:47:43.099Z,29.40
2019-05-01T13:48:49.404Z,29.40
2019-05-01T13:49:55.769Z,30.10
2019-05-01T13:51:02.180Z,30.70
2019-05-01T13:52:08.600Z,29.50
2019-05-01T13:53:14.958Z,30.00
2019-05-01T13:54:21.210Z,30.00
2019-05-01T13:55:27.823Z,29.60
2019-05-01T13:56:34.181Z,30.00
2019-05-01T13:57:40.676Z,29.70
2019-05-01T13:58:46.913Z,29.80
2019-05-01T13:59:53.497Z,30.80
2019-05-01T14:01:00.877Z,30.00
2019-05-01T14:02:08.395Z,29.10
2019-05-01T14:03:15.680Z,29.10
2019-05-01T14:04:22.735Z,28.50
2019-05-01T14:05:29.369Z,29.30
2019-05-01T14:06:37.456Z,29.30
2019-05-01T14:07:44.673Z,29.50
2019-05-01T14:08:51.347Z,30.00
2019-05-01T14:10:00.322Z,29.90
2019-05-01T14:11:10.309Z,30.10
2019-05-01T14:12:17.069Z,30.30
2019-05-01T14:13:25.719Z,30.00
2019-05-01T14:14:34.495Z,29.30
2019-05-01T14:15:43.181Z,29.20
2019-05-01T14:16:51.491Z,29.40
2019-05-01T14:17:57.811Z,29.90
2019-05-01T14:19:04.259Z,29.90
2019-05-01T14:20:35.606Z,29.40
2019-05-01T14:21:54.463Z,28.90
2019-05-01T14:23:12.071Z,26.80
2019-05-01T14:24:35.965Z,26.00
2019-05-01T14:26:00.130Z,25.90
2019-05-01T14:27:07.814Z,25.40
2019-05-01T14:28:15.434Z,25.10
2019-05-01T14:29:21.747Z,24.90
2019-05-01T14:30:28.167Z,25.90
2019-05-01T14:31:34.205Z,27.10
2019-05-01T14:32:40.526Z,28.60
2019-05-01T14:33:47.008Z,29.60
2019-05-01T14:34:53.290Z,29.70
2019-05-01T14:35:59.575Z,29.70
2019-05-01T14:37:05.929Z,30.00
2019-05-01T14:38:12.386Z,31.00
2019-05-01T14:39:18.738Z,31.80
2019-05-01T14:40:24.989Z,32.00
2019-05-01T14:41:31.366Z,32.20
2019-05-01T14:42:37.667Z,32.10
2019-05-01T14:43:50.617Z,32.50
2019-05-01T14:45:00.684Z,32.10
2019-05-01T14:46:07.818Z,32.10
2019-05-01T14:47:14.805Z,32.30
2019-05-01T14:48:22.714Z,32.60
2019-05-01T14:49:29.652Z,32.50
2019-05-01T14:50:37.225Z,32.70
2019-05-01T14:51:44.245Z,32.90
2019-05-01T14:52:51.148Z,33.00
2019-05-01T14:53:56.997Z,33.70
2019-05-01T14:55:03.019Z,33.80
2019-05-01T14:56:10.221Z,33.90
2019-05-01T14:57:16.471Z,34.40
2019-05-01T14:58:22.871Z,34.10
2019-05-01T14:59:29.310Z,33.70